createdAt,value
2018-04-24T00:01:35.327Z,7.47
2018-04-24T00:04:03.462Z,6.77
2018-04-24T00:06:32.291Z,3.20
2018-04-24T00:09:00.562Z,4.70
2018-04-24T00:11:29.357Z,3.10
2018-04-24T00:13:58.236Z,9.90
2018-04-24T00:16:27.044Z,2.00
2018-04-24T00:18:55.639Z,9.27
2018-04-24T00:21:23.761Z,8.37
2018-04-24T00:23:52.116Z,5.77
2018-04-24T00:26:21.689Z,6.27
2018-04-24T00:28:50.025Z,6.33
2018-04-24T00:31:18.729Z,8.00
2018-04-24T00:33:47.527Z,4.63
2018-04-24T00:36:16.904Z,3.93
2018-04-24T00:38:46.316Z,4.30
2018-04-24T00:41:14.457Z,4.97
2018-04-24T00:43:44.000Z,3.73
2018-04-24T00:46:12.332Z,11.67
2018-04-24T00:48:42.087Z,7.77
2018-04-24T00:51:10.950Z,5.67
2018-04-24T00:53:41.042Z,5.80
2018-04-24T00:56:09.184Z,8.13
2018-04-24T00:58:38.110Z,6.87
2018-04-24T01:01:06.200Z,6.80
2018-04-24T01:03:35.136Z,11.60
2018-04-24T01:06:03.438Z,7.63
2018-04-24T01:08:32.145Z,8.23
2018-04-24T01:11:00.253Z,10.20
2018-04-24T01:13:28.351Z,10.77
2018-04-24T01:15:56.696Z,3.60
2018-04-24T01:18:25.620Z,9.67
2018-04-24T01:20:53.749Z,7.13
2018-04-24T01:23:22.019Z,7.60
2018-04-24T01:25:51.551Z,6.40
2018-04-24T01:28:20.407Z,7.63
2018-04-24T01:30:49.669Z,6.40
2018-04-24T01:33:17.987Z,6.20
2018-04-24T01:35:46.315Z,4.60
2018-04-24T01:38:15.616Z,6.63
2018-04-24T01:40:43.896Z,4.10
2018-04-24T01:43:12.894Z,8.50
2018-04-24T01:45:42.672Z,5.00
2018-04-24T01:48:12.501Z,20.43
2018-04-24T01:50:41.570Z,5.73
2018-04-24T01:53:09.875Z,5.33
2018-04-24T01:55:38.081Z,9.33
2018-04-24T01:58:06.240Z,6.17
2018-04-24T02:00:36.890Z,6.23
2018-04-24T02:03:04.984Z,5.90
2018-04-24T02:05:33.060Z,8.87
2018-04-24T02:08:01.979Z,5.57
2018-04-24T02:10:30.168Z,9.20
2018-04-24T02:12:59.654Z,12.40
2018-04-24T02:15:28.100Z,12.80
2018-04-24T02:17:57.788Z,5.53
2018-04-24T02:20:27.925Z,10.10
2018-04-24T02:22:57.385Z,8.03
2018-04-24T02:25:26.125Z,5.60
2018-04-24T02:27:54.427Z,8.10
2018-04-24T02:30:23.567Z,7.63
2018-04-24T02:32:51.665Z,7.23
2018-04-24T02:35:20.544Z,5.73
2018-04-24T02:37:48.624Z,9.50
2018-04-24T02:40:17.123Z,6.23
2018-04-24T02:42:45.400Z,7.97
2018-04-24T02:45:14.893Z,7.80
2018-04-24T02:47:43.639Z,9.73
2018-04-24T02:50:15.241Z,7.17
2018-04-24T02:52:44.031Z,7.13
2018-04-24T02:55:12.190Z,7.27
2018-04-24T02:57:41.074Z,7.60
2018-04-24T03:00:09.179Z,9.40
2018-04-24T03:02:37.705Z,6.97
2018-04-24T03:05:06.064Z,7.23
2018-04-24T03:07:35.501Z,8.40
2018-04-24T03:10:03.887Z,7.20
2018-04-24T03:12:32.043Z,7.83
2018-04-24T03:15:00.939Z,6.90
2018-04-24T03:17:30.868Z,8.03
2018-04-24T03:19:59.165Z,5.07
2018-04-24T03:22:28.875Z,8.53
2018-04-24T03:24:58.862Z,6.90
2018-04-24T03:27:27.736Z,8.93
2018-04-24T03:29:56.316Z,7.07
2018-04-24T03:32:25.091Z,6.50
2018-04-24T03:34:53.484Z,7.87
2018-04-24T03:37:22.311Z,8.27
2018-04-24T03:39:55.110Z,7.97
2018-04-24T03:42:23.777Z,12.77
2018-04-24T03:44:51.914Z,7.63
2018-04-24T03:47:21.602Z,9.40
2018-04-24T03:49:49.675Z,8.17
2018-04-24T03:52:17.974Z,6.80
2018-04-24T03:54:46.880Z,10.10
2018-04-24T03:57:15.421Z,16.90
2018-04-24T03:59:44.252Z,6.77
2018-04-24T04:02:13.080Z,9.57
2018-04-24T04:04:42.223Z,9.70
2018-04-24T04:07:11.467Z,11.30
2018-04-24T04:09:40.857Z,13.20
2018-04-24T04:12:09.751Z,7.00
2018-04-24T04:14:37.837Z,12.90
2018-04-24T04:17:23.785Z,7.67
2018-04-24T04:20:10.207Z,9.73
2018-04-24T04:22:56.743Z,8.13
2018-04-24T04:25:26.864Z,9.13
2018-04-24T04:27:55.825Z,11.57
2018-04-24T04:30:24.535Z,15.33
2018-04-24T04:32:54.196Z,7.63
2018-04-24T04:35:22.420Z,9.73
2018-04-24T04:37:51.599Z,8.80
2018-04-24T04:40:20.492Z,7.57
2018-04-24T04:42:48.599Z,9.90
2018-04-24T04:45:17.491Z,6.77
2018-04-24T04:47:46.388Z,9.90
2018-04-24T04:50:14.608Z,12.13
2018-04-24T04:52:43.139Z,11.30
2018-04-24T04:55:12.000Z,5.00
2018-04-24T04:57:40.777Z,9.93
2018-04-24T05:00:09.536Z,7.87
2018-04-24T05:02:37.745Z,9.33
2018-04-24T05:05:06.624Z,8.20
2018-04-24T05:07:35.532Z,7.73
2018-04-24T05:10:03.861Z,16.27
2018-04-24T05:12:32.371Z,11.63
2018-04-24T05:15:01.438Z,9.67
2018-04-24T05:17:30.372Z,9.97
2018-04-24T05:19:59.097Z,9.43
2018-04-24T05:22:27.306Z,6.20
2018-04-24T05:24:56.140Z,9.33
2018-04-24T05:27:24.985Z,19.07
2018-04-24T05:29:53.439Z,11.30
2018-04-24T05:32:21.580Z,9.70
2018-04-24T05:34:50.495Z,11.43
2018-04-24T05:37:18.601Z,12.93
2018-04-24T05:39:46.789Z,8.53
2018-04-24T05:42:15.096Z,8.10
2018-04-24T05:44:44.053Z,9.53
2018-04-24T05:47:13.033Z,8.60
2018-04-24T05:49:41.355Z,7.23
2018-04-24T05:52:09.621Z,14.97
2018-04-24T05:54:38.577Z,9.03
2018-04-24T05:57:07.711Z,8.07
2018-04-24T05:59:35.802Z,7.10
2018-04-24T06:02:04.667Z,11.80
2018-04-24T06:04:35.712Z,11.53
2018-04-24T06:07:04.328Z,8.20
2018-04-24T06:09:32.550Z,7.80
2018-04-24T06:12:00.585Z,7.40
2018-04-24T06:14:28.712Z,11.10
2018-04-24T06:16:59.956Z,9.60
2018-04-24T06:19:28.056Z,12.10
2018-04-24T06:21:56.828Z,9.13
2018-04-24T06:24:25.800Z,15.10
2018-04-24T06:26:54.538Z,9.43
2018-04-24T06:29:22.760Z,6.43
2018-04-24T06:31:50.867Z,16.40
2018-04-24T06:34:19.085Z,13.10
2018-04-24T06:36:47.943Z,11.57
2018-04-24T06:39:16.291Z,6.87
2018-04-24T06:41:47.494Z,12.97
2018-04-24T06:44:15.656Z,12.20
2018-04-24T06:46:44.580Z,10.20
2018-04-24T06:49:13.171Z,7.93
2018-04-24T06:51:42.902Z,10.07
2018-04-24T06:54:10.988Z,17.27
2018-04-24T06:56:39.812Z,11.13
2018-04-24T06:59:07.873Z,7.93
2018-04-24T07:01:36.703Z,8.30
2018-04-24T07:04:05.605Z,7.53
2018-04-24T07:06:33.701Z,7.17
2018-04-24T07:09:02.152Z,8.77
2018-04-24T07:11:31.880Z,8.57
2018-04-24T07:14:00.128Z,9.70
2018-04-24T07:16:28.935Z,7.47
2018-04-24T07:18:59.168Z,11.37
2018-04-24T07:21:27.513Z,7.20
2018-04-24T07:23:56.307Z,11.10
2018-04-24T07:26:25.629Z,11.60
2018-04-24T07:28:54.508Z,9.67
2018-04-24T07:31:22.896Z,7.80
2018-04-24T07:33:52.526Z,10.37
2018-04-24T07:36:20.863Z,8.13
2018-04-24T07:38:49.679Z,11.43
2018-04-24T07:41:17.980Z,7.63
2018-04-24T07:43:46.252Z,9.80
2018-04-24T07:46:14.508Z,9.10
2018-04-24T07:48:43.511Z,9.30
2018-04-24T07:51:11.735Z,8.20
2018-04-24T07:53:40.219Z,7.10
2018-04-24T07:56:09.329Z,8.40
2018-04-24T07:58:37.471Z,9.90
2018-04-24T08:01:05.808Z,8.90
2018-04-24T08:03:34.008Z,8.30
2018-04-24T08:06:02.871Z,12.10
2018-04-24T08:08:31.780Z,25.13
2018-04-24T08:11:00.031Z,13.60
2018-04-24T08:13:28.920Z,14.50
2018-04-24T08:15:58.600Z,7.13
2018-04-24T08:18:27.441Z,8.83
2018-04-24T08:20:56.328Z,9.00
2018-04-24T08:23:24.579Z,6.03
2018-04-24T08:25:53.316Z,8.73
2018-04-24T08:28:22.215Z,7.97
2018-04-24T08:30:51.074Z,10.63
2018-04-24T08:33:19.732Z,12.10
2018-04-24T08:35:47.829Z,18.07
2018-04-24T08:38:16.689Z,9.60
2018-04-24T08:40:45.819Z,9.83
2018-04-24T08:43:14.183Z,13.27
2018-04-24T08:45:43.265Z,8.37
2018-04-24T08:48:12.164Z,10.93
2018-04-24T08:50:42.117Z,9.83
2018-04-24T08:53:11.153Z,11.60
2018-04-24T08:55:40.625Z,12.53
2018-04-24T08:58:10.088Z,12.00
2018-04-24T09:00:38.600Z,13.13
2018-04-24T09:03:07.460Z,20.13
2018-04-24T09:05:35.534Z,16.93
2018-04-24T09:08:04.410Z,12.03
2018-04-24T09:10:34.025Z,15.10
2018-04-24T09:13:02.799Z,12.93
2018-04-24T09:15:30.889Z,11.70
2018-04-24T09:17:59.780Z,9.17
2018-04-24T09:20:28.748Z,10.10
2018-04-24T09:22:57.269Z,17.80
2018-04-24T09:25:26.155Z,13.20
2018-04-24T09:27:55.144Z,10.40
2018-04-24T09:30:24.636Z,19.13
2018-04-24T09:32:55.046Z,11.67
2018-04-24T09:35:28.708Z,15.37
2018-04-24T09:37:58.990Z,16.10
2018-04-24T09:40:27.772Z,15.03
2018-04-24T09:42:56.280Z,15.97
2018-04-24T09:45:24.551Z,15.90
2018-04-24T09:47:53.349Z,16.53
2018-04-24T09:50:21.431Z,14.37
2018-04-24T09:52:49.844Z,17.53
2018-04-24T09:55:17.955Z,11.63
2018-04-24T09:57:47.343Z,17.40
2018-04-24T10:00:22.411Z,16.90
2018-04-24T10:02:51.473Z,25.93
2018-04-24T10:05:19.853Z,16.10
2018-04-24T10:07:48.838Z,14.47
2018-04-24T10:10:16.981Z,12.07
2018-04-24T10:12:45.849Z,22.17
2018-04-24T10:15:14.880Z,15.30
2018-04-24T10:17:43.014Z,13.20
2018-04-24T10:20:11.164Z,11.67
2018-04-24T10:22:40.256Z,10.93
2018-04-24T10:25:09.152Z,11.87
2018-04-24T10:27:38.109Z,14.83
2018-04-24T10:30:07.333Z,14.67
2018-04-24T10:32:35.420Z,17.30
2018-04-24T10:35:05.300Z,16.37
2018-04-24T10:37:34.156Z,17.90
2018-04-24T10:40:02.719Z,13.60
2018-04-24T10:42:31.057Z,21.90
2018-04-24T10:44:59.324Z,18.27
2018-04-24T10:47:28.496Z,17.17
2018-04-24T10:49:56.598Z,20.40
2018-04-24T10:52:25.129Z,18.77
2018-04-24T10:54:53.209Z,21.30
2018-04-24T10:57:21.346Z,18.43
2018-04-24T10:59:50.470Z,21.73
2018-04-24T11:02:18.728Z,15.93
2018-04-24T11:04:46.844Z,14.40
2018-04-24T11:07:15.765Z,15.43
2018-04-24T11:09:44.019Z,17.37
2018-04-24T11:12:15.824Z,18.37
2018-04-24T11:14:44.126Z,19.70
2018-04-24T11:17:12.257Z,18.13
2018-04-24T11:19:41.367Z,19.07
2018-04-24T11:22:09.459Z,18.27
2018-04-24T11:24:38.312Z,19.80
2018-04-24T11:27:06.387Z,31.03
2018-04-24T11:29:35.204Z,20.70
2018-04-24T11:32:03.320Z,23.40
2018-04-24T11:34:33.747Z,17.20
2018-04-24T11:37:02.827Z,28.60
2018-04-24T11:39:30.927Z,19.80
2018-04-24T11:41:59.306Z,23.33
2018-04-24T11:44:27.420Z,17.13
2018-04-24T11:46:55.649Z,18.00
2018-04-24T11:49:25.834Z,22.10
2018-04-24T11:51:54.598Z,19.40
2018-04-24T11:54:23.120Z,16.60
2018-04-24T11:56:51.412Z,12.40
2018-04-24T11:59:19.632Z,14.27
2018-04-24T12:01:48.412Z,12.60
2018-04-24T12:04:16.525Z,16.90
2018-04-24T12:06:46.192Z,17.57
2018-04-24T12:09:14.327Z,14.30
2018-04-24T12:11:42.709Z,14.90
2018-04-24T12:14:11.637Z,22.10
2018-04-24T12:16:44.531Z,15.90
2018-04-24T12:19:12.651Z,13.43
2018-04-24T12:21:40.826Z,20.13
2018-04-24T12:24:09.940Z,16.53
2018-04-24T12:26:38.100Z,12.60
2018-04-24T12:29:06.948Z,15.43
2018-04-24T12:31:36.150Z,15.30
2018-04-24T12:34:05.970Z,20.70
2018-04-24T12:36:34.884Z,15.00
2018-04-24T12:39:02.951Z,12.10
2018-04-24T12:41:33.318Z,15.60
2018-04-24T12:44:01.625Z,19.47
2018-04-24T12:46:29.701Z,16.97
2018-04-24T12:48:58.361Z,19.87
2018-04-24T12:51:26.451Z,14.30
2018-04-24T12:53:54.551Z,11.90
2018-04-24T12:56:22.996Z,16.27
2018-04-24T12:58:53.437Z,21.20
2018-04-24T13:01:21.740Z,14.67
2018-04-24T13:03:50.081Z,12.70
2018-04-24T13:06:18.499Z,16.87
2018-04-24T13:08:47.318Z,15.90
2018-04-24T13:11:15.475Z,12.50
2018-04-24T13:13:44.472Z,12.40
2018-04-24T13:16:15.467Z,15.23
2018-04-24T13:18:43.756Z,13.27
2018-04-24T13:21:11.891Z,14.33
2018-04-24T13:23:40.003Z,18.77
2018-04-24T13:26:08.074Z,12.60
2018-04-24T13:28:36.220Z,21.80
2018-04-24T13:31:04.318Z,17.77
2018-04-24T13:33:32.661Z,15.80
2018-04-24T13:36:00.944Z,21.90
2018-04-24T13:38:29.038Z,19.13
2018-04-24T13:40:57.792Z,14.93
2018-04-24T13:43:26.102Z,17.03
2018-04-24T13:45:54.408Z,12.90
2018-04-24T13:48:25.181Z,14.30
2018-04-24T13:50:54.153Z,14.27
2018-04-24T13:53:22.671Z,12.23
2018-04-24T13:55:50.929Z,13.17
2018-04-24T13:58:19.259Z,19.77
2018-04-24T14:00:48.006Z,20.23
2018-04-24T14:03:17.064Z,18.80
2018-04-24T14:05:45.187Z,19.27
2018-04-24T14:08:13.495Z,13.47
2018-04-24T14:10:41.612Z,15.70
2018-04-24T14:13:09.817Z,21.27
2018-04-24T14:15:38.010Z,16.33
2018-04-24T14:18:06.877Z,14.60
2018-04-24T14:20:34.972Z,17.27
2018-04-24T14:23:04.657Z,17.03
2018-04-24T14:25:33.575Z,18.23
2018-04-24T14:28:02.150Z,20.67
2018-04-24T14:30:30.939Z,17.43
2018-04-24T14:32:59.810Z,17.47
2018-04-24T14:35:28.325Z,36.43
2018-04-24T14:37:57.350Z,21.40
2018-04-24T14:40:27.608Z,15.27
2018-04-24T14:42:55.969Z,18.53
2018-04-24T14:45:24.769Z,13.93
2018-04-24T14:47:53.683Z,16.10
2018-04-24T14:50:22.248Z,22.93
2018-04-24T14:52:51.753Z,20.10
2018-04-24T14:55:20.689Z,18.77
2018-04-24T14:57:48.771Z,15.83
2018-04-24T15:00:17.702Z,15.83
2018-04-24T15:02:46.999Z,17.10
2018-04-24T15:05:19.325Z,15.30
2018-04-24T15:07:48.411Z,13.60
2018-04-24T15:10:16.692Z,14.63
2018-04-24T15:12:45.028Z,12.63
2018-04-24T15:15:13.489Z,18.73
2018-04-24T15:17:44.872Z,14.37
2018-04-24T15:20:13.008Z,14.03
2018-04-24T15:22:41.871Z,17.20
2018-04-24T15:25:10.097Z,16.07
2018-04-24T15:27:38.970Z,12.80
2018-04-24T15:30:07.281Z,19.10
2018-04-24T15:32:35.626Z,13.13
2018-04-24T15:35:03.939Z,13.57
2018-04-24T15:37:31.949Z,15.10
2018-04-24T15:40:00.771Z,14.20
2018-04-24T15:42:28.877Z,28.73
2018-04-24T15:44:56.971Z,15.33
2018-04-24T15:47:25.047Z,20.30
2018-04-24T15:49:53.484Z,19.33
2018-04-24T15:52:22.353Z,12.87
2018-04-24T15:54:50.581Z,18.60
2018-04-24T15:57:19.660Z,13.17
2018-04-24T15:59:49.807Z,16.13
2018-04-24T16:02:18.260Z,13.77
2018-04-24T16:04:46.818Z,21.43
2018-04-24T16:07:15.080Z,12.13
2018-04-24T16:09:43.413Z,24.67
2018-04-24T16:12:12.546Z,16.73
2018-04-24T16:14:41.111Z,12.40
2018-04-24T16:17:09.379Z,20.83
2018-04-24T16:19:38.960Z,15.93
2018-04-24T16:22:08.309Z,15.10
2018-04-24T16:24:36.824Z,13.83
2018-04-24T16:27:05.716Z,16.17
2018-04-24T16:29:37.341Z,15.43
2018-04-24T16:32:06.080Z,14.93
2018-04-24T16:34:34.283Z,12.80
2018-04-24T16:37:03.197Z,13.50
2018-04-24T16:39:31.600Z,11.97
2018-04-24T16:42:00.411Z,11.97
2018-04-24T16:44:29.774Z,15.13
2018-04-24T16:46:58.118Z,16.30
2018-04-24T16:49:26.408Z,11.80
2018-04-24T16:51:55.292Z,15.13
2018-04-24T16:54:25.848Z,11.13
2018-04-24T16:56:54.457Z,16.13
2018-04-24T16:59:28.576Z,16.23
2018-04-24T17:01:56.884Z,12.50
2018-04-24T17:04:26.965Z,11.80
2018-04-24T17:06:55.973Z,17.73
2018-04-24T17:09:24.821Z,11.93
2018-04-24T17:11:55.463Z,11.47
2018-04-24T17:14:24.323Z,19.57
2018-04-24T17:16:53.277Z,20.87
2018-04-24T17:19:21.604Z,10.30
2018-04-24T17:21:54.055Z,15.20
2018-04-24T17:24:22.584Z,14.57
2018-04-24T17:26:50.900Z,16.20
2018-04-24T17:29:19.242Z,10.97
2018-04-24T17:31:48.032Z,13.20
2018-04-24T17:34:16.847Z,15.43
2018-04-24T17:36:45.048Z,13.97
2018-04-24T17:39:14.196Z,14.97
2018-04-24T17:41:42.590Z,12.23
2018-04-24T17:44:12.873Z,14.50
2018-04-24T17:46:41.043Z,18.70
2018-04-24T17:49:10.571Z,15.10
2018-04-24T17:51:38.876Z,18.43
2018-04-24T17:54:07.961Z,14.67
2018-04-24T17:56:36.045Z,11.70
2018-04-24T17:59:05.144Z,16.40
2018-04-24T18:01:34.088Z,18.03
2018-04-24T18:04:02.898Z,19.57
2018-04-24T18:06:32.117Z,18.83
2018-04-24T18:09:03.049Z,13.93
2018-04-24T18:11:32.880Z,17.33
2018-04-24T18:14:01.292Z,18.53
2018-04-24T18:16:29.621Z,14.77
2018-04-24T18:19:01.165Z,14.13
2018-04-24T18:21:29.571Z,21.53
2018-04-24T18:23:58.280Z,17.93
2018-04-24T18:26:26.556Z,14.63
2018-04-24T18:28:55.631Z,16.00
2018-04-24T18:31:24.020Z,11.83
2018-04-24T18:33:52.792Z,23.37
2018-04-24T18:36:21.244Z,13.70
2018-04-24T18:38:49.738Z,13.57
2018-04-24T18:41:19.529Z,13.13
2018-04-24T18:43:47.860Z,10.17
2018-04-24T18:46:16.894Z,12.80
2018-04-24T18:48:45.425Z,14.30
2018-04-24T18:51:14.312Z,14.77
2018-04-24T18:53:43.515Z,14.27
2018-04-24T18:56:11.894Z,13.87
2018-04-24T18:58:40.191Z,15.70
2018-04-24T19:01:09.050Z,15.33
2018-04-24T19:03:39.336Z,13.40
2018-04-24T19:06:07.457Z,17.43
2018-04-24T19:08:37.233Z,16.57
2018-04-24T19:11:05.579Z,19.97
2018-04-24T19:13:34.716Z,13.80
2018-04-24T19:16:06.369Z,14.97
2018-04-24T19:18:40.985Z,21.37
2018-04-24T19:21:09.186Z,15.33
2018-04-24T19:23:38.004Z,14.43
2018-04-24T19:26:08.229Z,13.87
2018-04-24T19:28:37.640Z,12.20
2018-04-24T19:31:12.640Z,14.87
2018-04-24T19:33:40.853Z,16.10
2018-04-24T19:36:10.013Z,14.17
2018-04-24T19:38:39.642Z,19.40
2018-04-24T19:41:14.260Z,12.97
2018-04-24T19:43:44.649Z,12.93
2018-04-24T19:46:13.568Z,14.70
2018-04-24T19:48:50.308Z,11.60
2018-04-24T19:51:20.120Z,13.23
2018-04-24T19:53:48.631Z,11.93
2018-04-24T19:56:19.159Z,11.47
2018-04-24T19:58:49.893Z,19.00
2018-04-24T20:01:18.034Z,16.87
2018-04-24T20:03:47.301Z,14.23
2018-04-24T20:06:17.957Z,14.70
2018-04-24T20:08:48.228Z,11.87
2018-04-24T20:11:20.740Z,17.80
2018-04-24T20:13:49.257Z,24.30
2018-04-24T20:16:19.061Z,14.07
2018-04-24T20:18:47.969Z,14.77
2018-04-24T20:21:18.427Z,13.67
2018-04-24T20:23:48.276Z,13.07
2018-04-24T20:26:21.179Z,16.33
2018-04-24T20:28:50.309Z,20.07
2018-04-24T20:31:18.704Z,17.67
2018-04-24T20:33:48.935Z,19.67
2018-04-24T20:36:18.288Z,13.87
2018-04-24T20:38:48.705Z,20.53
2018-04-24T20:41:19.042Z,17.10
2018-04-24T20:43:48.037Z,14.10
2018-04-24T20:46:19.837Z,17.03
2018-04-24T20:48:48.264Z,12.37
2018-04-24T20:51:19.045Z,16.37
2018-04-24T20:53:47.924Z,12.07
2018-04-24T20:56:23.903Z,27.97
2018-04-24T20:58:53.103Z,26.83
2018-04-24T21:01:25.881Z,15.67
2018-04-24T21:03:54.984Z,20.07
2018-04-24T21:06:23.172Z,20.23
2018-04-24T21:08:52.135Z,18.57
2018-04-24T21:11:20.326Z,15.43
2018-04-24T21:13:50.923Z,20.17
2018-04-24T21:16:19.021Z,18.10
2018-04-24T21:18:47.334Z,21.60
2018-04-24T21:21:15.680Z,10.93
2018-04-24T21:23:45.360Z,40.97
2018-04-24T21:26:14.319Z,16.07
2018-04-24T21:28:42.631Z,22.13
2018-04-24T21:31:11.128Z,18.47
2018-04-24T21:33:39.233Z,18.53
2018-04-24T21:36:08.314Z,16.30
2018-04-24T21:38:36.677Z,19.60
2018-04-24T21:41:05.439Z,19.60
2018-04-24T21:43:33.526Z,20.10
2018-04-24T21:46:03.519Z,24.37
2018-04-24T21:48:33.327Z,19.07
2018-04-24T21:51:02.437Z,23.53
2018-04-24T21:53:30.744Z,18.70
2018-04-24T21:55:58.888Z,17.40
2018-04-24T21:58:27.771Z,18.00
2018-04-24T22:00:57.179Z,18.20
2018-04-24T22:03:25.262Z,22.33
2018-04-24T22:05:53.372Z,29.37
2018-04-24T22:08:22.240Z,19.20
2018-04-24T22:10:50.508Z,18.23
2018-04-24T22:13:18.667Z,22.40
2018-04-24T22:15:47.603Z,30.63
2018-04-24T22:18:16.448Z,24.40
2018-04-24T22:20:45.696Z,26.30
2018-04-24T22:23:15.900Z,19.30
2018-04-24T22:25:44.026Z,19.20
2018-04-24T22:28:12.125Z,31.87
2018-04-24T22:30:40.480Z,19.57
2018-04-24T22:33:09.608Z,19.30
2018-04-24T22:35:37.748Z,23.77
2018-04-24T22:38:06.119Z,19.90
2018-04-24T22:40:34.537Z,21.97
2018-04-24T22:43:02.586Z,21.27
2018-04-24T22:45:30.767Z,19.50
2018-04-24T22:48:00.091Z,19.20
2018-04-24T22:50:28.275Z,22.17
2018-04-24T22:52:56.435Z,23.87
2018-04-24T22:55:24.531Z,23.70
2018-04-24T22:57:52.635Z,23.47
2018-04-24T23:00:20.950Z,21.40
2018-04-24T23:02:49.131Z,21.13
2018-04-24T23:05:17.393Z,21.10
2018-04-24T23:07:46.265Z,20.33
2018-04-24T23:10:14.359Z,25.07
2018-04-24T23:13:00.968Z,21.33
2018-04-24T23:15:47.244Z,21.50
2018-04-24T23:18:32.893Z,22.37
2018-04-24T23:21:02.064Z,18.87
2018-04-24T23:23:31.119Z,23.20
2018-04-24T23:25:59.941Z,17.70
2018-04-24T23:28:29.724Z,17.77
2018-04-24T23:30:57.800Z,22.33
2018-04-24T23:33:26.600Z,20.73
2018-04-24T23:35:54.679Z,21.27
2018-04-24T23:38:22.779Z,19.13
2018-04-24T23:40:51.838Z,16.33
2018-04-24T23:43:19.918Z,17.40
2018-04-24T23:45:48.008Z,16.80
2018-04-24T23:48:21.474Z,19.03
2018-04-24T23:50:50.257Z,15.50
2018-04-24T23:53:19.552Z,17.60
2018-04-24T23:55:47.636Z,20.03
2018-04-24T23:58:16.471Z,17.50
